ADDS METAR Data INFO
IDs: Format: Raw Decoded Include TAF

Data at: 1209 UTC 21 Jun 2018

KPVC 211156Z AUTO 22008KT 10SM CLR 19/17 A2978 RMK AO2 SLP082 T01890172 10189 20150 51009
KPVC 211056Z AUTO 22007KT 10SM CLR 18/17 A2977 RMK AO2 SLP079 T01780172
KPVC 210956Z AUTO 21006KT 10SM CLR 17/16 A2976 RMK AO2 SLP077 T01670161
KPVC 210856Z AUTO 23005KT 10SM CLR 16/15 A2975 RMK AO2 SLP074 T01560150 55004
KPVC 210756Z AUTO 21004KT 10SM CLR 16/16 A2974 RMK AO2 SLP072 T01610156
KPVC 210656Z AUTO 22005KT 10SM CLR 17/17 A2975 RMK AO2 SLP074 T01670167
KPVC 210456Z AUTO 22007KT 10SM CLR 17/17 A2977 RMK AO2 SLP080 T01720167 402440100
KPVC 210356Z AUTO 22009KT 10SM CLR 18/17 A2978 RMK AO2 SLP083 T01780167
KPVC 210256Z AUTO 22010KT 10SM CLR 18/17 A2979 RMK AO2 SLP086 T01780167 50004
KPVC 210156Z AUTO 20008KT 10SM CLR 18/17 A2980 RMK AO2 SLP089 T01780167
KPVC 210056Z AUTO 21012KT 10SM CLR 18/17 A2979 RMK AO2 SLP086 T01830167
KPVC 202356Z AUTO 21012KT 10SM CLR 18/17 A2977 RMK AO2 SLP082 T01830167 10244 20183 56009
KPVC 202256Z AUTO 21011KT 10SM CLR 19/16 A2978 RMK AO2 SLP083 T01940161
KPVC 202156Z AUTO 22015G19KT 10SM CLR 20/16 A2979 RMK AO2 SLP087 T02000161
KPVC 202137Z AUTO 21015G21KT 10SM FEW001 21/16 A2979 RMK AO2
KPVC 202056Z AUTO 21013KT 10SM CLR 21/16 A2980 RMK AO2 SLP091 T02060161 58009
KPVC 201956Z AUTO 22015G19KT 10SM CLR 21/16 A2982 RMK AO2 SLP096 T02110161
KPVC 201856Z AUTO 21014G22KT 10SM CLR 22/15 A2982 RMK AO2 SLP098 T02220150
KPVC 201835Z AUTO 21017G22KT 10SM FEW001 23/15 A2983 RMK AO2
KPVC 201756Z AUTO 21020G23KT 10SM CLR 24/15 A2983 RMK AO2 SLP100 T02390150 10244 20183 56016
KPVC 201656Z AUTO 19011KT 10SM FEW055 23/15 A2985 RMK AO2 SLP108 T02330150
KPVC 201556Z AUTO 18009KT 10SM CLR 24/12 A2987 RMK AO2 SLP116 T02440122
KPVC 201456Z AUTO 19010G14KT 10SM CLR 22/12 A2989 RMK AO2 SLP122 T02220117 58013
KPVC 201356Z AUTO 21008KT 10SM CLR 22/12 A2991 RMK AO2 SLP127 T02220122
KPVC 201256Z AUTO 30004KT 10SM CLR 19/13 A2992 RMK AO2 SLP131 T01940133
KPVC 201156Z AUTO 29004KT 10SM CLR 18/14 A2993 RMK AO2 SLP135 T01830139 10183 20100 51018
KPVC 201056Z AUTO 29003KT 10SM CLR 17/14 A2991 RMK AO2 SLP128 T01720144
KPVC 200956Z AUTO 00000KT 10SM CLR 12/10 A2990 RMK AO2 SLP124 T01170100
KPVC 200934Z AUTO 00000KT 10SM FEW001 10/09 A2990 RMK AO2
KPVC 200856Z AUTO 00000KT 10SM CLR 11/09 A2988 RMK AO2 SLP117 T01060094 53000
KPVC 200756Z AUTO 00000KT 10SM CLR 11/10 A2987 RMK AO2 SLP115 T01110100
KPVC 200656Z AUTO 03003KT 10SM CLR 16/13 A2987 RMK AO2 SLP114 T01560128
KPVC 200556Z AUTO 02004KT 10SM CLR 16/13 A2988 RMK AO2 SLP116 T01560128 10211 20117 50004
KPVC 200456Z AUTO 01003KT 10SM CLR 12/10 A2988 RMK AO2 SLP117 T01220100 402390117
KPVC 200356Z AUTO 00000KT 10SM CLR 12/09 A2988 RMK AO2 SLP116 T01170094
KPVC 200256Z AUTO 00000KT 10SM CLR 13/09 A2986 RMK AO2 SLP112 T01280094 51018
KPVC 200156Z AUTO 04003KT 10SM CLR 14/11 A2985 RMK AO2 SLP107 T01390106
KPVC 200056Z AUTO 00000KT 10SM CLR 16/11 A2983 RMK AO2 SLP100 T01610106
KPVC 200029Z AUTO 00000KT 10SM FEW001 18/11 A2982 RMK AO2